Time;durP1;ratioP1;P1;durP2;ratioP2;P2;SDS_P1;SDS_P2;PMS_P1;PMS_P2;Temp;Humidity;BMP_temperature;BMP_pressure;BME280_temperature;BME280_humidity;BME280_pressure;Samples;Min_cycle;Max_cycle;Signal;HPM_P1;HPM_P2
2021/05/13 00:00:34;;;;;;;1.43;0.60;;;13.40;70.90;;;;;;5075383;28;20689;-83
2021/05/13 00:02:59;;;;;;;4.83;0.80;;;13.40;70.90;;;;;;5076027;28;20032;-82
2021/05/13 00:05:25;;;;;;;1.83;0.60;;;13.40;70.90;;;;;;5075632;28;20032;-83
2021/05/13 00:07:51;;;;;;;0.80;0.60;;;13.40;71.10;;;;;;5075744;28;20024;-82
2021/05/13 00:10:20;;;;;;;1.17;0.77;;;13.40;71.20;;;;;;5071417;28;20016;-81
2021/05/13 00:12:51;;;;;;;1.43;0.60;;;13.40;71.40;;;;;;5091701;28;20480;-82
2021/05/13 00:15:22;;;;;;;2.73;0.77;;;13.40;71.40;;;;;;5093783;28;20027;-83
2021/05/13 00:17:49;;;;;;;3.53;1.10;;;13.40;71.30;;;;;;5089733;28;20033;-81
2021/05/13 00:20:19;;;;;;;1.60;0.80;;;13.50;71.30;;;;;;5071757;28;20040;-83
2021/05/13 00:22:45;;;;;;;1.37;0.90;;;13.50;71.30;;;;;;5073130;28;20031;-83
2021/05/13 00:25:12;;;;;;;0.77;0.40;;;13.50;71.30;;;;;;5083817;28;20020;-83
2021/05/13 00:27:38;;;;;;;1.23;0.50;;;13.50;71.20;;;;;;5092003;28;20044;-83
2021/05/13 00:30:05;;;;;;;2.20;0.60;;;13.40;71.40;;;;;;5093229;28;20080;-82
2021/05/13 00:32:31;;;;;;;0.60;0.50;;;13.30;71.50;;;;;;5090543;28;20039;-82
2021/05/13 00:34:57;;;;;;;1.67;0.50;;;13.30;71.80;;;;;;5093677;28;20020;-82
2021/05/13 00:37:23;;;;;;;1.43;0.40;;;13.30;71.90;;;;;;5073518;28;20035;-82
2021/05/13 00:39:49;;;;;;;1.87;0.67;;;13.40;71.80;;;;;;5074516;28;20024;-80
2021/05/13 00:42:15;;;;;;;0.90;0.60;;;13.30;71.60;;;;;;5070840;28;20024;-83
2021/05/13 00:44:45;;;;;;;0.83;0.50;;;13.30;71.70;;;;;;5092653;28;20035;-82
2021/05/13 00:47:12;;;;;;;0.73;0.50;;;13.30;71.80;;;;;;5075197;28;20023;-81
2021/05/13 00:49:39;;;;;;;0.67;0.40;;;13.30;71.90;;;;;;5069585;28;20054;-82
2021/05/13 00:52:08;;;;;;;0.77;0.50;;;13.30;72.00;;;;;;5072897;28;20508;-83
2021/05/13 00:54:37;;;;;;;1.13;0.40;;;13.30;71.80;;;;;;5072419;28;20408;-82
2021/05/13 00:57:05;;;;;;;1.80;0.40;;;13.30;71.90;;;;;;5092414;28;20481;-82
2021/05/13 00:59:30;;;;;;;0.87;0.50;;;13.30;71.70;;;;;;5092615;28;20020;-83
2021/05/13 01:01:58;;;;;;;2.53;0.60;;;13.30;71.70;;;;;;5073441;28;20024;-82
2021/05/13 01:04:23;;;;;;;2.47;0.50;;;13.20;71.90;;;;;;5075022;28;20028;-80
2021/05/13 01:06:50;;;;;;;0.70;0.40;;;13.20;71.90;;;;;;5074492;28;21719;-82
2021/05/13 01:09:24;;;;;;;0.80;0.50;;;13.20;71.90;;;;;;5092564;28;20024;-82
2021/05/13 01:11:54;;;;;;;1.23;0.40;;;13.10;72.00;;;;;;5086215;28;20016;-80
2021/05/13 01:14:28;;;;;;;0.60;0.50;;;13.10;72.20;;;;;;5085190;28;20020;-83
2021/05/13 01:19:25;;;;;;;2.43;0.50;;;13.10;72.10;;;;;;5091303;28;20032;-82
2021/05/13 01:21:51;;;;;;;0.80;0.50;;;13.10;71.80;;;;;;5091808;28;20027;-82
2021/05/13 01:24:17;;;;;;;0.70;0.40;;;13.10;71.70;;;;;;5074677;28;20066;-83
2021/05/13 01:26:48;;;;;;;0.30;0.30;;;13.00;71.80;;;;;;5074155;28;20062;-82
2021/05/13 01:29:17;;;;;;;1.27;0.60;;;13.00;72.00;;;;;;5089505;28;20067;-83
2021/05/13 01:31:42;;;;;;;1.07;0.50;;;13.00;72.10;;;;;;5073975;28;20457;-82
2021/05/13 01:34:09;;;;;;;3.43;0.40;;;13.10;72.40;;;;;;5067924;28;20031;-82
2021/05/13 01:36:35;;;;;;;0.90;0.40;;;13.10;72.20;;;;;;5074179;28;20012;-82
2021/05/13 01:39:02;;;;;;;0.90;0.30;;;13.10;72.30;;;;;;5093138;28;20069;-83
2021/05/13 01:41:28;;;;;;;0.70;0.33;;;13.10;72.30;;;;;;5072745;28;20036;-83
2021/05/13 01:43:53;;;;;;;0.40;0.20;;;13.10;72.30;;;;;;5090490;28;20024;-81
2021/05/13 01:46:19;;;;;;;0.70;0.40;;;13.20;72.30;;;;;;5073069;28;20028;-83
2021/05/13 01:48:45;;;;;;;1.53;0.50;;;13.10;72.20;;;;;;5060658;28;20040;-83
2021/05/13 01:51:11;;;;;;;1.43;0.40;;;13.10;72.30;;;;;;5087693;28;20020;-82
2021/05/13 01:53:43;;;;;;;2.10;0.40;;;13.10;72.50;;;;;;5082132;28;20025;-83
2021/05/13 01:56:11;;;;;;;2.47;0.60;;;13.10;72.70;;;;;;5088522;28;20016;-83
2021/05/13 01:58:38;;;;;;;0.63;0.40;;;13.00;72.80;;;;;;5073097;28;20032;-82
2021/05/13 02:01:04;;;;;;;2.03;0.50;;;13.00;72.90;;;;;;5073889;28;20042;-82
2021/05/13 02:03:31;;;;;;;1.77;0.70;;;13.00;73.60;;;;;;5070856;28;20542;-82
2021/05/13 02:05:56;;;;;;;2.70;0.83;;;13.00;73.10;;;;;;5093705;28;20031;-83
2021/05/13 02:08:22;;;;;;;1.23;0.50;;;13.00;73.10;;;;;;5093331;28;20021;-82
2021/05/13 02:10:48;;;;;;;0.83;0.70;;;13.00;73.10;;;;;;5093162;28;20024;-82
2021/05/13 02:13:14;;;;;;;1.90;0.90;;;13.00;72.90;;;;;;5094504;28;20024;-82
2021/05/13 02:15:40;;;;;;;1.93;0.50;;;13.00;72.90;;;;;;5089133;28;20021;-82
2021/05/13 02:18:05;;;;;;;0.97;0.40;;;13.10;72.90;;;;;;5076070;28;20059;-82
2021/05/13 02:20:32;;;;;;;1.17;0.40;;;13.10;72.60;;;;;;5096694;28;20053;-82
2021/05/13 02:22:58;;;;;;;1.57;0.67;;;13.20;72.50;;;;;;5095219;28;20074;-82
2021/05/13 02:25:31;;;;;;;0.50;0.40;;;13.20;72.20;;;;;;5092937;28;20028;-81
2021/05/13 02:27:57;;;;;;;0.80;0.35;;;13.20;72.20;;;;;;5094424;28;20029;-82
2021/05/13 02:30:23;;;;;;;1.03;0.50;;;13.20;72.10;;;;;;5095621;28;20341;-82
2021/05/13 02:32:49;;;;;;;0.77;0.40;;;13.20;72.00;;;;;;5095289;28;20031;-82
2021/05/13 02:35:15;;;;;;;1.40;0.70;;;13.20;72.10;;;;;;5084119;28;20106;-82
2021/05/13 02:37:42;;;;;;;0.87;0.50;;;13.20;71.80;;;;;;5071707;28;20017;-82
2021/05/13 02:40:09;;;;;;;2.60;0.73;;;13.20;71.80;;;;;;5094398;28;20032;-82
2021/05/13 02:42:35;;;;;;;1.53;0.60;;;13.20;72.00;;;;;;5095118;28;20081;-82
2021/05/13 02:45:00;;;;;;;1.07;0.50;;;13.20;71.90;;;;;;5095525;28;20496;-82
2021/05/13 02:47:26;;;;;;;1.10;0.50;;;13.20;71.90;;;;;;5089233;28;20020;-82
2021/05/13 02:49:52;;;;;;;0.90;0.40;;;13.20;71.90;;;;;;5095813;28;20043;-82
2021/05/13 02:52:18;;;;;;;4.40;0.80;;;13.20;72.00;;;;;;5088311;28;20029;-82
2021/05/13 02:54:43;;;;;;;1.63;0.40;;;13.10;72.00;;;;;;5084399;28;20020;-83
2021/05/13 02:57:09;;;;;;;2.03;0.57;;;13.20;71.90;;;;;;5094111;28;20028;-82
2021/05/13 03:02:07;;;;;;;0.45;0.22;;;13.10;71.90;;;;;;5068497;28;20467;-76
2021/05/13 03:04:34;;;;;;;0.50;0.30;;;13.10;71.80;;;;;;5092809;28;20036;-76
2021/05/13 03:07:00;;;;;;;2.67;0.40;;;13.10;71.90;;;;;;5074967;28;20077;-76
2021/05/13 03:09:25;;;;;;;0.60;0.37;;;13.10;71.80;;;;;;5076819;28;20028;-76
2021/05/13 03:11:51;;;;;;;0.83;0.30;;;13.10;71.70;;;;;;5085588;28;20043;-75
2021/05/13 03:14:17;;;;;;;0.43;0.40;;;13.00;72.10;;;;;;5068125;28;20056;-76
2021/05/13 03:16:43;;;;;;;2.00;0.47;;;13.10;72.20;;;;;;5093985;28;20386;-76
2021/05/13 03:19:15;;;;;;;1.17;0.40;;;13.10;72.30;;;;;;5076396;28;20049;-76
2021/05/13 03:21:42;;;;;;;1.90;0.47;;;13.10;72.40;;;;;;5093797;28;20028;-76
2021/05/13 03:24:24;;;;;;;0.67;0.50;;;13.00;72.50;;;;;;5093573;28;20034;-76
2021/05/13 03:29:16;;;;;;;3.40;0.83;;;13.00;72.70;;;;;;5077133;28;20627;-76
2021/05/13 03:31:42;;;;;;;3.27;1.43;;;13.00;72.70;;;;;;5048467;28;20031;-76
2021/05/13 03:34:08;;;;;;;4.33;1.50;;;13.00;72.60;;;;;;5074550;28;20024;-75
2021/05/13 03:36:34;;;;;;;2.27;1.67;;;13.10;72.60;;;;;;5074111;28;20035;-76
2021/05/13 03:39:06;;;;;;;2.30;1.90;;;13.10;72.60;;;;;;5073003;28;20040;-76
2021/05/13 03:41:32;;;;;;;5.88;2.58;;;13.10;72.80;;;;;;5060615;28;20106;-76
2021/05/13 03:43:58;;;;;;;5.43;3.80;;;13.10;73.30;;;;;;5052692;28;20044;-76
2021/05/13 03:46:24;;;;;;;7.03;4.00;;;13.00;72.90;;;;;;5039344;28;20384;-76
2021/05/13 03:48:50;;;;;;;9.83;6.17;;;13.00;73.00;;;;;;5061207;28;20492;-75
2021/05/13 03:51:16;;;;;;;5.10;3.40;;;13.00;73.00;;;;;;5073530;28;20047;-76
2021/05/13 03:53:43;;;;;;;5.30;3.93;;;13.00;73.20;;;;;;5073754;28;20032;-76
2021/05/13 03:56:10;;;;;;;3.00;2.20;;;13.00;73.20;;;;;;5070100;28;20021;-76
2021/05/13 03:58:58;;;;;;;2.70;2.40;;;13.10;73.10;;;;;;5055712;28;20028;-76
2021/05/13 04:04:08;;;;;;;4.27;3.80;;;13.10;73.00;;;;;;5071342;28;20476;-76
2021/05/13 04:06:34;;;;;;;5.00;4.50;;;13.00;73.10;;;;;;5068693;28;20040;-76
2021/05/13 04:09:00;;;;;;;5.70;5.17;;;13.00;73.20;;;;;;5055535;28;20026;-76
2021/05/13 04:11:25;;;;;;;4.50;4.00;;;13.10;73.10;;;;;;5072894;28;20026;-76
2021/05/13 04:13:52;;;;;;;5.60;5.00;;;13.10;72.90;;;;;;5055164;28;20111;-76
2021/05/13 04:16:27;;;;;;;5.10;4.60;;;13.20;73.00;;;;;;5073217;28;20028;-76
2021/05/13 04:18:52;;;;;;;7.87;5.43;;;13.10;73.00;;;;;;5056022;28;20775;-75
2021/05/13 04:21:18;;;;;;;7.10;5.87;;;13.10;72.90;;;;;;5055545;28;20028;-76
2021/05/13 04:23:44;;;;;;;5.47;4.70;;;13.10;73.50;;;;;;5073315;28;20032;-76
2021/05/13 04:26:09;;;;;;;5.83;5.27;;;13.00;73.10;;;;;;5054477;28;20060;-76
2021/05/13 04:28:35;;;;;;;5.63;5.00;;;13.00;73.30;;;;;;5084340;28;20412;-76
2021/05/13 04:31:01;;;;;;;6.07;5.00;;;13.10;73.40;;;;;;5088099;28;20070;-76
2021/05/13 04:33:26;;;;;;;17.77;10.03;;;13.10;73.20;;;;;;5074737;28;20027;-76
2021/05/13 04:35:52;;;;;;;25.77;17.57;;;13.10;73.10;;;;;;5075541;28;20022;-76
2021/05/13 04:38:18;;;;;;;4.30;3.90;;;13.10;73.00;;;;;;5073188;28;20045;-76
2021/05/13 04:40:45;;;;;;;7.97;6.10;;;13.10;72.70;;;;;;5074148;28;20111;-76
2021/05/13 04:43:11;;;;;;;2.93;2.40;;;13.10;72.80;;;;;;5074805;28;20078;-76
2021/05/13 04:45:37;;;;;;;4.30;2.83;;;13.10;73.30;;;;;;5074507;28;20032;-76
2021/05/13 04:48:07;;;;;;;4.40;3.70;;;13.10;72.80;;;;;;5074516;28;20029;-76
2021/05/13 04:50:34;;;;;;;4.87;4.20;;;13.10;72.80;;;;;;5074440;28;20020;-75
2021/05/13 04:53:04;;;;;;;4.27;3.70;;;13.00;72.70;;;;;;5092172;28;20020;-76
2021/05/13 04:55:30;;;;;;;5.90;4.67;;;13.00;72.90;;;;;;5083744;28;20350;-76
2021/05/13 04:57:55;;;;;;;3.53;3.20;;;13.00;73.00;;;;;;5092574;28;20024;-77
2021/05/13 05:00:21;;;;;;;3.33;2.50;;;13.00;73.00;;;;;;5090040;28;20059;-76
2021/05/13 05:02:47;;;;;;;3.70;2.77;;;13.00;72.90;;;;;;5093311;28;20027;-76
2021/05/13 05:05:13;;;;;;;5.73;2.80;;;13.00;73.10;;;;;;5066099;28;20131;-76
2021/05/13 05:07:39;;;;;;;4.97;3.30;;;13.00;73.10;;;;;;5072691;28;20066;-75
2021/05/13 05:10:05;;;;;;;6.50;5.47;;;13.00;73.30;;;;;;5073513;28;20020;-75
2021/05/13 05:12:31;;;;;;;3.70;3.40;;;12.90;73.50;;;;;;5091696;28;20059;-76
2021/05/13 05:14:57;;;;;;;4.10;2.77;;;12.90;73.60;;;;;;5081044;28;20491;-75
2021/05/13 05:17:23;;;;;;;3.20;2.77;;;13.00;73.60;;;;;;5091056;28;20422;-75
2021/05/13 05:19:49;;;;;;;3.60;3.20;;;13.00;73.60;;;;;;5092387;28;20537;-76
2021/05/13 05:22:15;;;;;;;3.80;2.80;;;13.00;73.20;;;;;;5074349;28;20024;-75
2021/05/13 05:24:40;;;;;;;5.43;2.87;;;13.00;73.30;;;;;;5070165;28;20069;-75
2021/05/13 05:27:06;;;;;;;5.47;3.03;;;13.00;73.20;;;;;;5067189;28;20039;-74
2021/05/13 05:29:32;;;;;;;4.00;3.10;;;13.00;73.10;;;;;;5075785;28;20051;-77
2021/05/13 05:31:58;;;;;;;4.13;3.10;;;13.00;73.00;;;;;;5081042;28;20024;-76
2021/05/13 05:34:24;;;;;;;4.67;3.40;;;13.10;72.90;;;;;;5067452;28;20016;-76
2021/05/13 05:36:50;;;;;;;3.57;2.90;;;13.10;72.80;;;;;;5067984;28;20481;-77
2021/05/13 05:39:15;;;;;;;5.67;4.07;;;13.10;73.40;;;;;;5082829;28;20110;-77
2021/05/13 05:41:42;;;;;;;6.27;3.97;;;13.10;72.70;;;;;;5071910;28;20024;-77
2021/05/13 05:44:08;;;;;;;4.63;4.23;;;13.20;72.80;;;;;;5074022;28;20035;-76
2021/05/13 05:46:35;;;;;;;4.90;4.40;;;13.20;72.80;;;;;;5063584;28;20530;-76
2021/05/13 05:49:01;;;;;;;6.23;4.43;;;13.20;72.90;;;;;;5058168;28;20556;-78
2021/05/13 05:51:27;;;;;;;3.90;3.37;;;13.20;72.90;;;;;;5068268;28;20034;-77
2021/05/13 05:53:52;;;;;;;6.83;3.80;;;13.20;73.00;;;;;;5062890;28;20028;-76
2021/05/13 05:56:19;;;;;;;3.87;3.07;;;13.10;73.10;;;;;;5094809;28;20112;-76
2021/05/13 05:58:45;;;;;;;3.57;3.10;;;13.20;73.50;;;;;;5072618;28;20078;-76
2021/05/13 06:01:10;;;;;;;4.17;2.97;;;13.20;73.50;;;;;;5095372;28;20032;-76
2021/05/13 06:03:36;;;;;;;4.90;3.50;;;13.20;73.40;;;;;;5076348;28;20024;-77
2021/05/13 06:06:02;;;;;;;5.10;3.80;;;13.10;73.50;;;;;;5094412;28;20020;-77
2021/05/13 06:08:27;;;;;;;5.77;4.17;;;13.10;73.70;;;;;;5089393;28;20484;-76
2021/05/13 06:10:53;;;;;;;4.40;3.97;;;13.10;73.80;;;;;;5085437;28;20019;-76
2021/05/13 06:13:19;;;;;;;5.47;4.40;;;13.00;73.70;;;;;;5077690;28;20046;-76
2021/05/13 06:15:45;;;;;;;5.13;4.60;;;13.10;73.80;;;;;;5092410;28;20027;-76
2021/05/13 06:18:11;;;;;;;6.60;4.80;;;13.10;73.90;;;;;;5081135;28;20036;-76
2021/05/13 06:20:37;;;;;;;5.53;5.03;;;13.20;73.80;;;;;;5087629;28;20024;-76
2021/05/13 06:23:04;;;;;;;5.67;5.17;;;13.20;73.80;;;;;;5092373;28;20105;-76
2021/05/13 06:25:29;;;;;;;5.37;4.70;;;13.20;73.70;;;;;;5094542;28;20043;-77
2021/05/13 06:27:57;;;;;;;6.53;4.77;;;13.20;73.70;;;;;;5089906;28;20044;-77
2021/05/13 06:30:24;;;;;;;6.03;5.43;;;13.30;73.60;;;;;;5075104;28;20024;-77
2021/05/13 06:32:50;;;;;;;6.90;5.40;;;13.30;73.70;;;;;;5060185;28;20029;-77
2021/05/13 06:35:18;;;;;;;6.10;5.07;;;13.20;73.50;;;;;;5071894;28;20025;-76
2021/05/13 06:37:44;;;;;;;5.20;4.70;;;13.30;73.40;;;;;;5062195;28;20060;-77
2021/05/13 06:40:10;;;;;;;7.73;5.10;;;13.30;73.30;;;;;;5061641;28;20020;-76
2021/05/13 06:42:36;;;;;;;7.93;6.07;;;13.30;73.30;;;;;;5065518;28;20036;-77
2021/05/13 06:45:06;;;;;;;6.37;5.67;;;13.40;73.30;;;;;;5072842;28;20389;-76
2021/05/13 06:47:33;;;;;;;7.93;6.73;;;13.40;73.30;;;;;;5069834;28;20031;-76
2021/05/13 06:49:59;;;;;;;7.73;6.47;;;13.40;73.30;;;;;;5063722;28;20499;-77
2021/05/13 06:52:25;;;;;;;8.70;7.30;;;13.40;73.00;;;;;;5068144;28;20129;-76
2021/05/13 06:54:50;;;;;;;7.90;7.03;;;13.50;73.00;;;;;;5063643;28;20067;-77
2021/05/13 06:57:16;;;;;;;10.10;9.00;;;13.50;72.80;;;;;;5073995;28;20035;-77
2021/05/13 06:59:44;;;;;;;12.70;9.90;;;13.60;72.70;;;;;;5073008;28;20525;-76
2021/05/13 07:02:10;;;;;;;8.30;7.17;;;13.60;72.60;;;;;;5066730;28;20031;-77
2021/05/13 07:04:36;;;;;;;6.63;5.90;;;13.60;72.70;;;;;;5065124;28;20024;-76
2021/05/13 07:07:02;;;;;;;5.07;4.57;;;13.70;72.70;;;;;;5062280;28;20040;-77
2021/05/13 07:09:27;;;;;;;5.93;4.73;;;13.60;72.40;;;;;;5070101;28;20434;-76
2021/05/13 07:11:53;;;;;;;6.10;5.17;;;13.70;72.30;;;;;;5071587;28;20021;-77
2021/05/13 07:14:21;;;;;;;5.73;4.97;;;13.70;72.00;;;;;;5068408;28;20020;-77
2021/05/13 07:16:47;;;;;;;6.93;5.83;;;13.60;72.10;;;;;;5069756;28;20033;-76
2021/05/13 07:19:13;;;;;;;4.87;4.37;;;13.60;72.20;;;;;;5072435;28;20058;-76
2021/05/13 07:21:38;;;;;;;6.67;4.93;;;13.60;72.00;;;;;;5070467;28;20147;-77
2021/05/13 07:24:05;;;;;;;4.43;4.03;;;13.60;72.00;;;;;;5072696;28;20523;-77
2021/05/13 07:26:31;;;;;;;4.77;4.23;;;13.60;71.90;;;;;;5060276;28;20380;-76
2021/05/13 07:28:57;;;;;;;4.60;4.20;;;13.60;71.70;;;;;;5075853;28;20036;-77
2021/05/13 07:31:22;;;;;;;6.53;4.60;;;13.70;71.80;;;;;;5093715;28;20496;-76
2021/05/13 07:33:48;;;;;;;6.37;4.67;;;13.70;71.90;;;;;;5074608;28;20047;-77
2021/05/13 07:36:14;;;;;;;4.57;3.30;;;13.70;71.90;;;;;;5089491;28;20411;-76
2021/05/13 07:38:40;;;;;;;5.40;4.20;;;13.70;71.80;;;;;;5075199;28;20032;-77
2021/05/13 07:41:07;;;;;;;4.30;3.77;;;13.80;71.60;;;;;;5093428;28;20073;-77
2021/05/13 07:43:35;;;;;;;5.80;4.27;;;13.80;71.50;;;;;;5074815;28;20020;-77
2021/05/13 07:46:02;;;;;;;7.20;4.07;;;13.90;71.30;;;;;;5074539;28;20488;-77
2021/05/13 07:48:29;;;;;;;4.83;4.17;;;13.90;71.40;;;;;;5085870;28;20032;-77
2021/05/13 07:50:56;;;;;;;4.40;4.00;;;13.90;71.80;;;;;;5073293;28;20429;-77
2021/05/13 07:53:22;;;;;;;5.53;3.73;;;13.90;71.90;;;;;;5074117;28;20028;-76
2021/05/13 07:55:48;;;;;;;4.80;3.10;;;13.90;71.80;;;;;;5063677;28;20413;-77
2021/05/13 07:58:13;;;;;;;3.83;2.40;;;13.90;71.70;;;;;;5062191;28;20025;-77
2021/05/13 08:00:40;;;;;;;3.83;2.97;;;13.90;71.40;;;;;;5075266;28;20082;-77
2021/05/13 08:03:06;;;;;;;6.07;3.40;;;14.00;71.30;;;;;;5070819;28;20054;-77
2021/05/13 08:05:32;;;;;;;7.13;4.07;;;13.90;71.50;;;;;;5072291;28;20103;-77
2021/05/13 08:07:58;;;;;;;8.53;5.50;;;14.00;71.50;;;;;;5059450;28;20143;-76
2021/05/13 08:10:24;;;;;;;5.07;2.77;;;14.00;71.30;;;;;;5074798;28;20016;-76
2021/05/13 08:12:50;;;;;;;2.43;1.87;;;14.10;71.20;;;;;;5091270;28;20020;-76
2021/05/13 08:15:16;;;;;;;2.30;1.90;;;14.10;70.80;;;;;;5075186;28;20028;-77
2021/05/13 08:17:43;;;;;;;2.70;1.60;;;14.10;70.60;;;;;;5074402;28;20017;-77
2021/05/13 08:20:12;;;;;;;1.90;1.70;;;14.20;70.50;;;;;;5092341;28;20495;-77
2021/05/13 08:22:38;;;;;;;1.27;1.10;;;14.20;70.20;;;;;;5083755;28;20439;-77
2021/05/13 08:25:05;;;;;;;1.57;1.10;;;14.20;69.80;;;;;;5075565;28;20027;-77
2021/05/13 08:27:31;;;;;;;3.53;1.67;;;14.20;69.80;;;;;;5092662;28;20020;-76
2021/05/13 08:29:58;;;;;;;3.43;1.67;;;14.30;69.80;;;;;;5091388;28;20020;-77
2021/05/13 08:32:25;;;;;;;3.03;1.80;;;14.40;69.60;;;;;;5076118;28;20070;-77
2021/05/13 08:34:52;;;;;;;2.17;1.20;;;14.40;69.30;;;;;;5080319;28;20420;-77
2021/05/13 08:37:17;;;;;;;2.07;1.30;;;14.40;69.10;;;;;;5073683;28;20092;-76
2021/05/13 08:39:43;;;;;;;1.80;1.40;;;14.40;69.00;;;;;;5073549;28;20556;-77
2021/05/13 08:42:10;;;;;;;1.97;1.23;;;14.40;68.90;;;;;;5074141;28;20039;-77
2021/05/13 08:44:36;;;;;;;1.87;1.10;;;14.40;68.80;;;;;;5074449;28;20469;-77
2021/05/13 08:47:02;;;;;;;2.57;0.80;;;14.50;68.60;;;;;;5092294;28;20028;-77
2021/05/13 08:49:28;;;;;;;0.90;0.80;;;14.60;68.40;;;;;;5078131;28;20050;-77
2021/05/13 08:51:54;;;;;;;1.77;1.03;;;14.60;68.10;;;;;;5076716;28;20394;-77
2021/05/13 08:54:23;;;;;;;1.77;1.00;;;14.60;68.00;;;;;;5073734;28;20023;-77
2021/05/13 08:56:49;;;;;;;1.57;0.90;;;14.60;67.80;;;;;;5084948;28;20507;-77
2021/05/13 08:59:15;;;;;;;1.30;0.90;;;14.60;67.80;;;;;;5074675;28;20476;-77
2021/05/13 09:02:00;;;;;;;1.33;0.60;;;14.60;67.70;;;;;;5072797;28;20035;-77
2021/05/13 09:04:47;;;;;;;2.10;1.30;;;14.70;67.30;;;;;;5063255;28;20384;-77
2021/05/13 09:07:21;;;;;;;2.33;1.40;;;14.70;67.10;;;;;;5088101;28;20024;-76
2021/05/13 09:10:03;;;;;;;1.80;1.17;;;14.70;67.20;;;;;;5074008;28;20032;-77
2021/05/13 09:12:31;;;;;;;3.80;1.15;;;14.80;67.00;;;;;;5073748;28;20049;-77
2021/05/13 09:15:07;;;;;;;3.23;1.20;;;14.80;66.90;;;;;;5088144;28;20179;-76
2021/05/13 09:17:34;;;;;;;1.43;1.00;;;14.80;66.70;;;;;;5066729;28;20088;-77
2021/05/13 09:20:00;;;;;;;1.27;0.70;;;14.80;66.60;;;;;;5090293;28;20027;-76
2021/05/13 09:22:28;;;;;;;3.13;1.87;;;14.80;66.50;;;;;;5086481;28;20046;-76
2021/05/13 09:24:55;;;;;;;4.33;2.43;;;14.80;66.50;;;;;;5073899;28;20027;-75
2021/05/13 09:27:22;;;;;;;3.77;2.33;;;14.80;66.50;;;;;;5073712;28;20028;-76
2021/05/13 09:30:02;;;;;;;4.00;1.60;;;14.80;66.50;;;;;;5069699;28;20049;-76
2021/05/13 09:32:28;;;;;;;1.90;1.17;;;14.80;66.30;;;;;;5052948;28;20075;-76
2021/05/13 09:34:55;;;;;;;7.07;3.50;;;14.80;66.20;;;;;;5070247;28;20048;-76
2021/05/13 09:37:27;;;;;;;4.17;2.90;;;14.80;66.20;;;;;;5070680;28;20090;-76
2021/05/13 09:39:52;;;;;;;5.53;2.92;;;14.80;66.00;;;;;;5062702;28;20032;-76
2021/05/13 09:42:19;;;;;;;6.10;2.30;;;14.80;66.20;;;;;;5070491;28;20029;-76
2021/05/13 09:44:49;;;;;;;4.10;2.20;;;14.80;66.70;;;;;;5069962;28;20423;-76
2021/05/13 09:47:26;;;;;;;1.87;1.40;;;14.80;66.90;;;;;;5070540;28;20025;-76
2021/05/13 09:49:59;;;;;;;2.10;1.47;;;14.80;66.70;;;;;;5066255;28;20032;-76
2021/05/13 09:52:51;;;;;;;1.53;0.70;;;14.70;66.40;;;;;;5068796;28;20369;-76
2021/05/13 09:55:30;;;;;;;2.67;0.87;;;14.60;65.80;;;;;;5071409;28;20047;-75
2021/05/13 09:57:59;;;;;;;3.90;3.00;;;14.60;65.80;;;;;;5054562;28;20023;-76
2021/05/13 10:00:33;;;;;;;2.47;1.87;;;14.60;65.50;;;;;;5071570;28;20067;-76
2021/05/13 10:02:59;;;;;;;3.73;1.30;;;14.70;65.60;;;;;;5066141;28;20021;-76
2021/05/13 10:05:26;;;;;;;58.43;52.73;;;14.70;65.60;;;;;;5062791;28;20477;-76
2021/05/13 10:07:52;;;;;;;24.43;22.03;;;14.80;65.60;;;;;;5070187;28;20036;-77
2021/05/13 10:10:19;;;;;;;4.37;3.50;;;14.80;65.70;;;;;;5066317;28;20087;-76
2021/05/13 10:12:46;;;;;;;2.80;1.83;;;14.80;65.40;;;;;;5064002;28;20021;-76
2021/05/13 10:15:16;;;;;;;3.07;1.90;;;14.90;65.10;;;;;;5063915;28;20048;-76
2021/05/13 10:17:44;;;;;;;3.00;1.43;;;14.90;64.90;;;;;;5069744;28;20063;-76
2021/05/13 10:20:16;;;;;;;3.27;1.30;;;14.90;65.00;;;;;;5069677;28;20039;-76
2021/05/13 10:22:44;;;;;;;1.63;0.90;;;15.00;65.30;;;;;;5069995;28;20033;-76
2021/05/13 10:25:28;;;;;;;1.67;1.37;;;15.00;65.20;;;;;;5067461;28;20032;-76
2021/05/13 10:28:02;;;;;;;3.97;1.63;;;15.00;64.90;;;;;;5065520;28;20044;-76
2021/05/13 10:30:33;;;;;;;2.07;1.10;;;15.00;65.00;;;;;;5061349;28;20028;-76
2021/05/13 10:33:08;;;;;;;3.83;0.90;;;15.00;65.10;;;;;;5056396;28;20020;-76
2021/05/13 10:35:34;;;;;;;2.53;1.20;;;15.00;65.10;;;;;;5066289;28;20381;-76
2021/05/13 10:38:05;;;;;;;3.83;2.50;;;15.00;65.10;;;;;;5074613;28;20016;-76
2021/05/13 10:43:12;;;;;;;1.80;1.10;;;15.00;65.30;;;;;;5074586;28;20028;-77
2021/05/13 10:45:45;;;;;;;1.97;1.03;;;15.10;65.50;;;;;;5056139;28;20053;-76
2021/05/13 10:48:11;;;;;;;0.93;0.80;;;15.10;65.60;;;;;;5062794;28;20083;-76
2021/05/13 10:50:56;;;;;;;5.07;4.07;;;15.10;65.40;;;;;;5042456;28;20020;-77
2021/05/13 10:53:34;;;;;;;4.50;3.13;;;15.10;65.20;;;;;;5062533;28;20131;-76
2021/05/13 10:56:14;;;;;;;8.53;6.63;;;15.10;65.40;;;;;;5071053;28;20105;-76
2021/05/13 10:59:09;;;;;;;9.33;6.53;;;15.10;65.40;;;;;;5070424;28;20493;-76
2021/05/13 11:01:48;;;;;;;8.03;5.73;;;15.20;65.40;;;;;;5033507;28;20048;-79
2021/05/13 11:04:34;;;;;;;10.33;6.67;;;15.20;65.40;;;;;;5056228;28;20108;-77
2021/05/13 11:07:12;;;;;;;7.53;5.47;;;15.20;65.30;;;;;;5054507;28;20111;-77
2021/05/13 11:09:47;;;;;;;12.87;8.53;;;15.20;65.50;;;;;;5047878;28;20051;-77
2021/05/13 11:12:14;;;;;;;12.43;6.90;;;15.20;65.70;;;;;;5039099;28;20021;-78
2021/05/13 11:20:23;;;;;;;9.23;4.80;;;15.30;65.20;;;;;;5065343;28;20033;-77
2021/05/13 11:23:05;;;;;;;8.85;5.93;;;15.20;65.30;;;;;;5052945;28;20063;-77
2021/05/13 11:25:56;;;;;;;8.40;5.67;;;15.20;65.90;;;;;;5056083;28;20177;-76
2021/05/13 11:28:25;;;;;;;4.63;3.27;;;15.20;65.30;;;;;;5055101;28;20049;-77
2021/05/13 11:30:54;;;;;;;4.47;2.40;;;15.20;65.30;;;;;;5036854;28;20052;-78
2021/05/13 11:33:20;;;;;;;3.00;2.10;;;15.20;65.40;;;;;;5066886;28;20396;-77
2021/05/13 11:35:46;;;;;;;5.40;2.57;;;15.20;65.50;;;;;;5068028;28;20025;-77
2021/05/13 11:38:17;;;;;;;12.23;6.17;;;15.30;65.80;;;;;;5051750;28;20082;-77
2021/05/13 11:40:44;;;;;;;5.47;3.40;;;15.30;66.00;;;;;;5055657;28;20047;-77
2021/05/13 11:43:33;;;;;;;4.57;3.10;;;15.30;66.10;;;;;;5068040;28;20033;-77
2021/05/13 11:46:01;;;;;;;3.77;2.40;;;15.30;66.80;;;;;;5067561;28;20370;-77
2021/05/13 11:48:30;;;;;;;3.03;1.70;;;15.30;66.90;;;;;;5049618;28;20496;-77
2021/05/13 11:50:59;;;;;;;3.13;2.03;;;15.40;67.20;;;;;;5055600;28;20035;-77
2021/05/13 11:53:26;;;;;;;2.00;1.80;;;15.40;67.30;;;;;;5072094;28;20020;-77
2021/05/13 11:55:52;;;;;;;3.23;1.77;;;15.50;67.00;;;;;;5072134;28;20017;-76
2021/05/13 11:58:48;;;;;;;1.57;1.30;;;15.60;66.60;;;;;;5054754;28;20036;-76
2021/05/13 12:01:16;;;;;;;2.45;1.30;;;15.70;66.70;;;;;;5029904;28;20123;-77
2021/05/13 12:03:42;;;;;;;2.67;2.07;;;15.70;66.40;;;;;;5047582;28;20032;-76
2021/05/13 12:06:08;;;;;;;3.03;2.22;;;15.80;66.70;;;;;;5046984;28;20025;-76
2021/05/13 12:08:35;;;;;;;3.58;3.00;;;15.80;65.80;;;;;;5054677;28;20032;-76
2021/05/13 12:11:01;;;;;;;5.63;2.72;;;15.90;65.80;;;;;;5038296;28;20029;-76
2021/05/13 12:13:28;;;;;;;6.82;2.90;;;15.90;65.70;;;;;;5067582;28;20063;-77
2021/05/13 12:16:04;;;;;;;2.95;2.65;;;16.00;65.40;;;;;;5048981;28;20152;-77
2021/05/13 12:18:30;;;;;;;1.83;1.35;;;16.10;65.30;;;;;;5047769;28;20115;-77
2021/05/13 12:20:57;;;;;;;1.73;1.30;;;16.10;64.70;;;;;;5072569;28;20112;-77
2021/05/13 12:23:23;;;;;;;4.55;2.35;;;16.20;64.40;;;;;;5054348;28;20028;-77
2021/05/13 12:25:49;;;;;;;2.78;1.58;;;16.20;64.20;;;;;;5072417;28;20552;-77
2021/05/13 12:28:17;;;;;;;3.90;2.22;;;16.30;63.80;;;;;;5078961;28;20127;-77
2021/05/13 12:30:53;;;;;;;2.70;1.85;;;16.30;63.50;;;;;;5069203;28;20039;-77
2021/05/13 12:33:28;;;;;;;2.42;1.98;;;16.40;63.10;;;;;;5071612;28;20129;-77
2021/05/13 12:35:54;;;;;;;2.55;2.30;;;16.40;63.20;;;;;;5090595;28;20027;-77
2021/05/13 12:38:22;;;;;;;4.53;2.80;;;16.50;62.80;;;;;;5073399;28;20491;-77
2021/05/13 12:41:04;;;;;;;4.97;3.20;;;16.40;62.10;;;;;;5092034;28;20046;-78
2021/05/13 12:43:32;;;;;;;2.92;2.28;;;16.40;62.70;;;;;;5078946;28;20024;-77
2021/05/13 12:45:57;;;;;;;4.70;3.55;;;16.40;62.60;;;;;;5091143;28;20484;-78
2021/05/13 12:48:28;;;;;;;5.47;3.10;;;16.50;62.40;;;;;;5086537;28;20102;-77
2021/05/13 12:51:00;;;;;;;2.60;2.38;;;16.60;62.60;;;;;;5092112;28;20016;-77
2021/05/13 12:53:26;;;;;;;3.90;2.97;;;16.60;62.60;;;;;;5070794;28;20473;-77
2021/05/13 12:55:53;;;;;;;4.43;2.42;;;16.70;62.50;;;;;;5066671;28;20021;-77
2021/05/13 12:58:27;;;;;;;3.55;2.83;;;16.80;62.30;;;;;;5076941;28;20089;-78
2021/05/13 13:00:55;;;;;;;4.68;3.00;;;16.80;62.20;;;;;;5068898;28;20615;-77
2021/05/13 13:03:30;;;;;;;6.93;3.65;;;16.80;62.30;;;;;;5070195;28;20028;-77
2021/05/13 13:06:07;;;;;;;4.82;3.92;;;16.90;62.30;;;;;;5067707;28;20040;-77
2021/05/13 13:08:43;;;;;;;4.68;3.40;;;16.90;62.50;;;;;;5081717;28;20025;-77